Cincinnati, Ohio
Current Conditions -  °F | °C
As of 2:53 PM on Wednesday 26 Nov 2014 (Local Time) from KLUK Reporting Station
Overcast Overcast  
Wind Chill:   Ceiling: 3400
Heat Index:   Visibility: 9mi
Dew Point: -2°   Wind: 5mph
Humidity: 65%   Direction: 280°W
Pressure: 30.08"   Gusts: NA
Location:  39.11°N, 84.5°W
Report Text: KLUK 261953Z 28004KT 9SM OVC034 04/M02 A3008 RMK AO2 SLP188 T00391022
Loading
Personal Weather Stations






























Interactive Weather Map New forecast layout! Learn more

10-Day Weather Forecast

Advertisements
Track Severe Weather on mobile